createdAt,value
2018-07-02T00:00:39.130Z,37.20
2018-07-02T00:03:07.036Z,37.50
2018-07-02T00:05:46.074Z,37.50
2018-07-02T00:08:13.976Z,37.80
2018-07-02T00:10:41.905Z,37.10
2018-07-02T00:13:09.812Z,37.30
2018-07-02T00:15:37.760Z,37.00
2018-07-02T00:18:05.652Z,37.10
2018-07-02T00:20:33.567Z,37.30
2018-07-02T00:23:01.445Z,37.20
2018-07-02T00:25:29.324Z,37.20
2018-07-02T00:27:57.144Z,37.10
2018-07-02T00:30:25.060Z,37.20
2018-07-02T00:32:52.974Z,37.40
2018-07-02T00:35:20.865Z,36.90
2018-07-02T00:37:48.748Z,37.10
2018-07-02T00:40:16.667Z,37.10
2018-07-02T00:42:44.581Z,37.30
2018-07-02T00:45:12.448Z,37.00
2018-07-02T00:47:40.308Z,37.10
2018-07-02T00:50:08.256Z,37.50
2018-07-02T00:52:36.175Z,37.30
2018-07-02T00:55:04.150Z,37.50
2018-07-02T00:57:32.224Z,37.50
2018-07-02T01:00:12.443Z,37.50
2018-07-02T01:02:40.348Z,37.60
2018-07-02T01:05:08.313Z,37.80
2018-07-02T01:07:36.249Z,37.70
2018-07-02T01:10:04.156Z,37.60
2018-07-02T01:12:32.151Z,38.00
2018-07-02T01:14:59.984Z,37.90
2018-07-02T01:17:27.899Z,37.90
2018-07-02T01:19:55.831Z,38.20
2018-07-02T01:22:23.766Z,38.20
2018-07-02T01:24:51.581Z,38.20
2018-07-02T01:27:19.484Z,37.90
2018-07-02T01:29:47.425Z,38.10
2018-07-02T01:32:15.412Z,38.50
2018-07-02T01:34:43.247Z,38.70
2018-07-02T01:37:11.168Z,38.70
2018-07-02T01:39:38.968Z,38.80
2018-07-02T01:42:06.872Z,39.10
2018-07-02T01:44:34.811Z,39.10
2018-07-02T01:47:02.693Z,39.40
2018-07-02T01:49:30.568Z,39.40
2018-07-02T01:51:58.579Z,39.50
2018-07-02T01:54:26.444Z,39.20
2018-07-02T01:56:54.361Z,39.20
2018-07-02T01:59:22.240Z,39.50
2018-07-02T02:01:50.209Z,40.00
2018-07-02T02:04:18.097Z,40.00
2018-07-02T02:06:46.012Z,39.80
2018-07-02T02:09:13.979Z,40.50
2018-07-02T02:11:41.783Z,40.50
2018-07-02T02:14:09.762Z,40.70
2018-07-02T02:16:37.696Z,40.60
2018-07-02T02:19:05.892Z,40.30
2018-07-02T02:21:33.899Z,40.50
2018-07-02T02:24:01.920Z,40.70
2018-07-02T02:26:30.113Z,40.90
2018-07-02T02:28:58.012Z,41.20
2018-07-02T02:31:25.883Z,41.30
2018-07-02T02:33:53.772Z,41.40
2018-07-02T02:36:21.668Z,42.30
2018-07-02T02:38:49.474Z,41.60
2018-07-02T02:41:17.385Z,41.60
2018-07-02T02:43:45.300Z,42.20
2018-07-02T02:46:13.360Z,41.60
2018-07-02T02:48:41.220Z,41.50
2018-07-02T02:51:09.153Z,42.20
2018-07-02T02:53:37.051Z,42.40
2018-07-02T02:58:32.855Z,42.20
2018-07-02T03:01:00.793Z,42.60
2018-07-02T03:03:28.684Z,42.70
2018-07-02T03:05:56.507Z,42.50
2018-07-02T03:08:24.369Z,42.40
2018-07-02T03:10:52.296Z,42.80
2018-07-02T03:13:20.152Z,43.00
2018-07-02T03:15:48.080Z,43.10
2018-07-02T03:18:16.016Z,43.10
2018-07-02T03:20:43.892Z,43.00
2018-07-02T03:23:11.882Z,43.20
2018-07-02T03:25:39.751Z,43.10
2018-07-02T03:30:35.384Z,43.10
2018-07-02T03:33:03.260Z,43.50
2018-07-02T03:35:31.276Z,43.50
2018-07-02T03:37:59.417Z,43.70
2018-07-02T03:40:27.291Z,43.40
2018-07-02T03:42:55.162Z,43.40
2018-07-02T03:45:23.052Z,43.00
2018-07-02T03:47:50.907Z,43.20
2018-07-02T03:50:18.717Z,43.00
2018-07-02T03:52:46.596Z,43.20
2018-07-02T03:55:14.599Z,43.00
2018-07-02T03:57:42.488Z,43.10
2018-07-02T04:00:10.461Z,43.20
2018-07-02T04:02:38.485Z,43.40
2018-07-02T04:05:06.380Z,43.50
2018-07-02T04:07:34.313Z,43.30
2018-07-02T04:10:02.308Z,43.70
2018-07-02T04:12:30.189Z,43.70
2018-07-02T04:14:58.100Z,43.50
2018-07-02T04:17:26.104Z,43.80
2018-07-02T04:19:54.007Z,43.70
2018-07-02T04:22:21.846Z,43.10
2018-07-02T04:24:49.724Z,43.30
2018-07-02T04:27:17.624Z,43.10
2018-07-02T04:29:45.533Z,43.00
2018-07-02T04:32:13.354Z,43.10
2018-07-02T04:34:41.201Z,43.10
2018-07-02T04:37:09.157Z,43.50
2018-07-02T04:39:37.052Z,43.00
2018-07-02T04:42:05.054Z,43.50
2018-07-02T04:44:33.204Z,43.10
2018-07-02T04:47:01.160Z,43.20
2018-07-02T04:49:29.054Z,44.00
2018-07-02T04:51:56.939Z,42.80
2018-07-02T04:54:24.836Z,43.40
2018-07-02T04:56:52.733Z,43.60
2018-07-02T04:59:20.632Z,42.60
2018-07-02T05:01:48.552Z,43.20
2018-07-02T05:04:16.445Z,43.50
2018-07-02T05:06:44.340Z,43.40
2018-07-02T05:09:12.253Z,43.70
2018-07-02T05:11:40.188Z,43.70
2018-07-02T05:14:08.047Z,43.70
2018-07-02T05:16:35.841Z,43.20
2018-07-02T05:19:03.697Z,43.50
2018-07-02T05:21:31.585Z,42.80
2018-07-02T05:23:59.616Z,42.40
2018-07-02T05:26:27.526Z,42.60
2018-07-02T05:28:55.377Z,41.10
2018-07-02T05:31:23.400Z,40.70
2018-07-02T05:33:51.581Z,40.20
2018-07-02T05:36:19.454Z,39.40
2018-07-02T05:38:47.332Z,39.30
2018-07-02T05:41:15.515Z,38.50
2018-07-02T05:43:43.568Z,37.60
2018-07-02T05:46:11.480Z,37.30
2018-07-02T05:48:39.422Z,37.30
2018-07-02T05:51:07.752Z,37.30
2018-07-02T05:53:35.621Z,37.20
2018-07-02T05:56:03.568Z,37.00
2018-07-02T05:58:31.808Z,37.10
2018-07-02T06:00:59.668Z,35.90
2018-07-02T06:05:55.264Z,35.30
2018-07-02T06:08:23.189Z,35.70
2018-07-02T06:10:51.080Z,35.60
2018-07-02T06:13:19.061Z,35.70
2018-07-02T06:15:46.904Z,34.80
2018-07-02T06:18:14.842Z,34.10
2018-07-02T06:20:43.137Z,34.00
2018-07-02T06:23:11.001Z,33.70
2018-07-02T06:25:38.904Z,33.20
2018-07-02T06:28:06.813Z,32.60
2018-07-02T06:30:34.814Z,31.80
2018-07-02T06:33:02.712Z,32.00
2018-07-02T06:35:30.767Z,32.50
2018-07-02T06:37:58.667Z,32.10
2018-07-02T06:40:26.559Z,31.40
2018-07-02T06:42:54.706Z,31.20
2018-07-02T06:45:22.563Z,31.00
2018-07-02T06:47:50.898Z,30.50
2018-07-02T06:50:19.632Z,30.00
2018-07-02T06:52:47.688Z,29.10
2018-07-02T06:55:15.640Z,29.20
2018-07-02T06:57:43.397Z,29.60
2018-07-02T07:00:11.346Z,28.90
2018-07-02T07:02:39.257Z,29.00
2018-07-02T07:05:07.066Z,29.90
2018-07-02T07:07:36.092Z,29.60
2018-07-02T07:10:04.146Z,28.70
2018-07-02T07:12:32.021Z,28.60
2018-07-02T07:14:59.935Z,28.60
2018-07-02T07:17:27.776Z,28.60
2018-07-02T07:19:55.723Z,28.60
2018-07-02T07:22:23.509Z,28.50
2018-07-02T07:24:51.488Z,28.90
2018-07-02T07:27:20.045Z,29.10
2018-07-02T07:29:48.344Z,28.90
2018-07-02T07:32:16.189Z,27.90
2018-07-02T07:34:44.098Z,27.70
2018-07-02T07:37:11.882Z,27.40
2018-07-02T07:39:39.716Z,26.80
2018-07-02T07:42:07.616Z,26.70
2018-07-02T07:44:35.740Z,26.50
2018-07-02T07:47:03.886Z,26.30
2018-07-02T07:49:31.778Z,26.60
2018-07-02T07:51:59.632Z,26.00
2018-07-02T07:54:27.840Z,25.70
2018-07-02T07:56:55.748Z,25.60
2018-07-02T07:59:23.566Z,26.00
2018-07-02T08:01:51.422Z,26.30
2018-07-02T08:04:19.612Z,26.10
2018-07-02T08:06:47.531Z,25.80
2018-07-02T08:09:15.400Z,24.30
2018-07-02T08:11:43.561Z,23.10
2018-07-02T08:14:11.473Z,22.40
2018-07-02T08:16:39.441Z,22.60
2018-07-02T08:19:07.429Z,22.80
2018-07-02T08:21:36.393Z,23.00
2018-07-02T08:24:04.590Z,23.30
2018-07-02T08:26:32.460Z,23.60
2018-07-02T08:29:00.290Z,23.60
2018-07-02T08:31:28.167Z,23.10
2018-07-02T08:33:56.641Z,23.10
2018-07-02T08:36:24.489Z,23.30
2018-07-02T08:38:52.396Z,23.80
2018-07-02T08:41:20.364Z,24.00
2018-07-02T08:43:48.284Z,23.90
2018-07-02T08:46:16.336Z,23.40
2018-07-02T08:48:44.408Z,24.10
2018-07-02T08:51:12.741Z,24.90
2018-07-02T08:53:40.840Z,24.90
2018-07-02T08:56:09.185Z,25.40
2018-07-02T08:58:37.433Z,26.00
2018-07-02T09:01:05.417Z,26.40
2018-07-02T09:03:33.456Z,25.40
2018-07-02T09:06:01.288Z,25.30
2018-07-02T09:08:29.145Z,25.40
2018-07-02T09:10:57.480Z,25.50
2018-07-02T09:13:25.340Z,25.60
2018-07-02T09:15:53.305Z,26.50
2018-07-02T09:18:21.332Z,26.90
2018-07-02T09:20:49.714Z,27.00
2018-07-02T09:23:17.468Z,26.80
2018-07-02T09:25:45.280Z,26.50
2018-07-02T09:28:13.037Z,26.20
2018-07-02T09:33:08.763Z,25.60
2018-07-02T09:35:36.620Z,25.60
2018-07-02T09:38:05.012Z,24.50
2018-07-02T09:40:32.963Z,24.40
2018-07-02T09:43:01.177Z,24.90
2018-07-02T09:45:29.070Z,24.90
2018-07-02T09:47:56.981Z,25.30
2018-07-02T09:50:24.905Z,25.30
2018-07-02T09:52:52.784Z,25.00
2018-07-02T09:55:20.747Z,25.10
2018-07-02T09:57:48.677Z,25.10
2018-07-02T10:00:16.900Z,25.20
2018-07-02T10:02:44.732Z,24.50
2018-07-02T10:05:12.571Z,25.00
2018-07-02T10:07:40.422Z,25.10
2018-07-02T10:10:08.378Z,24.70
2018-07-02T10:12:36.270Z,24.30
2018-07-02T10:15:05.045Z,24.10
2018-07-02T10:17:33.023Z,24.00
2018-07-02T10:20:00.955Z,24.40
2018-07-02T10:22:29.188Z,24.40
2018-07-02T10:24:57.185Z,24.40
2018-07-02T10:27:25.344Z,24.50
2018-07-02T10:29:53.194Z,24.10
2018-07-02T10:32:21.301Z,24.00
2018-07-02T10:34:49.228Z,24.30
2018-07-02T10:37:17.118Z,24.10
2018-07-02T10:39:45.005Z,23.90
2018-07-02T10:42:12.844Z,24.00
2018-07-02T10:44:40.704Z,24.90
2018-07-02T10:47:08.656Z,25.40
2018-07-02T10:49:36.506Z,25.90
2018-07-02T10:52:04.420Z,25.10
2018-07-02T10:54:32.272Z,25.20
2018-07-02T10:57:00.157Z,25.30
2018-07-02T10:59:28.027Z,25.10
2018-07-02T11:01:55.896Z,25.00
2018-07-02T11:06:51.488Z,25.00
2018-07-02T11:09:19.355Z,25.00
2018-07-02T11:11:47.229Z,25.10
2018-07-02T11:14:15.140Z,25.00
2018-07-02T11:16:43.071Z,24.70
2018-07-02T11:19:10.896Z,24.80
2018-07-02T11:21:39.204Z,24.10
2018-07-02T11:24:07.040Z,24.30
2018-07-02T11:29:02.643Z,25.00
2018-07-02T11:31:30.483Z,25.10
2018-07-02T11:33:58.298Z,25.50
2018-07-02T11:36:26.110Z,25.40
2018-07-02T11:38:54.016Z,25.00
2018-07-02T11:41:21.858Z,25.10
2018-07-02T11:43:49.662Z,24.80
2018-07-02T11:46:17.599Z,24.70
2018-07-02T11:48:45.538Z,24.80
2018-07-02T11:51:13.414Z,24.30
2018-07-02T11:53:41.276Z,24.90
2018-07-02T11:56:09.244Z,24.20
2018-07-02T11:58:37.171Z,24.90
2018-07-02T12:01:05.000Z,24.60
2018-07-02T12:03:32.856Z,24.80
2018-07-02T12:06:00.676Z,25.00
2018-07-02T12:08:28.469Z,24.90
2018-07-02T12:10:56.193Z,24.70
2018-07-02T12:13:24.152Z,24.20
2018-07-02T12:15:51.964Z,24.20
2018-07-02T12:18:19.855Z,24.80
2018-07-02T12:20:47.720Z,24.50
2018-07-02T12:23:15.673Z,25.20
2018-07-02T12:25:43.481Z,25.00
2018-07-02T12:28:11.337Z,24.90
2018-07-02T12:30:39.163Z,24.90
2018-07-02T12:33:07.052Z,25.30
2018-07-02T12:35:34.917Z,24.90
2018-07-02T12:38:02.791Z,24.70
2018-07-02T12:40:30.688Z,25.10
2018-07-02T12:42:58.559Z,25.40
2018-07-02T12:45:26.432Z,25.00
2018-07-02T12:47:54.872Z,24.90
2018-07-02T12:50:22.880Z,25.70
2018-07-02T12:52:50.929Z,25.50
2018-07-02T12:55:18.793Z,25.70
2018-07-02T12:57:46.667Z,26.20
2018-07-02T13:00:14.463Z,26.30
2018-07-02T13:02:42.312Z,26.30
2018-07-02T13:05:10.120Z,26.50
2018-07-02T13:07:38.137Z,26.00
2018-07-02T13:10:06.357Z,25.70
2018-07-02T13:12:34.296Z,25.70
2018-07-02T13:15:02.234Z,26.00
2018-07-02T13:17:30.129Z,26.00
2018-07-02T13:19:58.001Z,25.50
2018-07-02T13:22:25.830Z,25.70
2018-07-02T13:24:53.667Z,25.60
2018-07-02T13:27:21.582Z,24.70
2018-07-02T13:29:49.300Z,24.70
2018-07-02T13:32:17.180Z,25.50
2018-07-02T13:34:44.888Z,25.70
2018-07-02T13:37:12.816Z,25.70
2018-07-02T13:39:40.660Z,25.20
2018-07-02T13:42:08.469Z,26.00
2018-07-02T13:44:36.276Z,25.00
2018-07-02T13:47:04.588Z,24.30
2018-07-02T13:49:32.449Z,24.80
2018-07-02T13:52:00.240Z,25.00
2018-07-02T13:54:28.167Z,25.30
2018-07-02T13:56:56.072Z,25.30
2018-07-02T13:59:24.052Z,25.80
2018-07-02T14:01:52.797Z,25.90
2018-07-02T14:04:21.698Z,26.00
2018-07-02T14:06:50.011Z,25.80
2018-07-02T14:09:17.894Z,25.50
2018-07-02T14:11:45.921Z,25.30
2018-07-02T14:14:13.911Z,25.40
2018-07-02T14:16:41.803Z,25.50
2018-07-02T14:19:10.408Z,25.70
2018-07-02T14:21:38.569Z,25.40
2018-07-02T14:24:06.412Z,25.80
2018-07-02T14:26:34.302Z,25.00
2018-07-02T14:29:02.129Z,24.60
2018-07-02T14:31:30.032Z,24.30
2018-07-02T14:33:59.021Z,24.10
2018-07-02T14:36:26.821Z,24.70
2018-07-02T14:38:54.836Z,25.20
2018-07-02T14:43:51.416Z,25.60
2018-07-02T14:46:19.434Z,24.90
2018-07-02T14:51:15.314Z,24.60
2018-07-02T14:53:43.217Z,24.10
2018-07-02T14:56:11.126Z,24.10
2018-07-02T15:01:06.890Z,24.40
2018-07-02T15:03:34.796Z,24.90
2018-07-02T15:06:02.696Z,25.00
2018-07-02T15:08:30.625Z,25.20
2018-07-02T15:10:58.680Z,25.40
2018-07-02T15:13:27.269Z,24.80
2018-07-02T15:15:55.166Z,25.00
2018-07-02T15:18:23.166Z,25.00
2018-07-02T15:20:51.048Z,25.00
2018-07-02T15:23:19.251Z,25.30
2018-07-02T15:25:47.589Z,25.10
2018-07-02T15:28:15.535Z,24.60
2018-07-02T15:30:43.360Z,24.90
2018-07-02T15:33:11.153Z,25.70
2018-07-02T15:35:40.359Z,25.80
2018-07-02T15:38:08.975Z,25.20
2018-07-02T15:40:36.933Z,25.50
2018-07-02T15:43:05.039Z,25.70
2018-07-02T15:45:33.136Z,25.10
2018-07-02T15:48:01.272Z,24.80
2018-07-02T15:50:29.273Z,24.70
2018-07-02T15:52:57.257Z,25.20
2018-07-02T15:55:25.152Z,25.50
2018-07-02T15:57:53.576Z,25.80
2018-07-02T16:00:21.488Z,25.50
2018-07-02T16:02:50.149Z,25.60
2018-07-02T16:05:18.069Z,25.60
2018-07-02T16:07:45.947Z,25.50
2018-07-02T16:10:13.792Z,25.30
2018-07-02T16:12:41.661Z,25.20
2018-07-02T16:15:09.532Z,25.50
2018-07-02T16:17:37.440Z,25.50
2018-07-02T16:20:05.352Z,25.20
2018-07-02T16:22:33.172Z,24.80
2018-07-02T16:25:01.677Z,24.90
2018-07-02T16:27:29.544Z,25.20
2018-07-02T16:30:00.375Z,24.90
2018-07-02T16:32:28.282Z,24.60
2018-07-02T16:34:56.135Z,24.50
2018-07-02T16:37:23.940Z,24.60
2018-07-02T16:39:51.869Z,24.90
2018-07-02T16:42:19.699Z,24.90
2018-07-02T16:44:47.912Z,24.70
2018-07-02T16:47:15.883Z,24.80
2018-07-02T16:49:44.072Z,24.70
2018-07-02T16:52:12.000Z,24.80
2018-07-02T16:54:40.538Z,24.80
2018-07-02T16:57:08.503Z,25.30
2018-07-02T16:59:36.625Z,25.30
2018-07-02T17:02:04.467Z,25.70
2018-07-02T17:04:32.432Z,25.50
2018-07-02T17:07:02.833Z,25.30
2018-07-02T17:09:31.098Z,25.10
2018-07-02T17:11:59.028Z,25.20
2018-07-02T17:14:27.050Z,25.50
2018-07-02T17:16:54.957Z,25.50
2018-07-02T17:19:22.967Z,25.50
2018-07-02T17:21:50.809Z,25.30
2018-07-02T17:24:18.887Z,25.60
2018-07-02T17:26:46.794Z,25.80
2018-07-02T17:29:14.728Z,25.80
2018-07-02T17:31:42.640Z,25.60
2018-07-02T17:34:10.511Z,25.20
2018-07-02T17:36:38.393Z,25.60
2018-07-02T17:39:08.100Z,25.60
2018-07-02T17:41:35.920Z,26.10
2018-07-02T17:44:04.315Z,26.10
2018-07-02T17:46:32.290Z,26.60
2018-07-02T17:49:00.252Z,26.80
2018-07-02T17:51:28.240Z,27.40
2018-07-02T17:53:56.098Z,27.80
2018-07-02T17:56:23.988Z,28.20
2018-07-02T17:58:51.920Z,28.40
2018-07-02T18:01:19.879Z,28.60
2018-07-02T18:03:47.705Z,28.30
2018-07-02T18:06:15.607Z,28.60
2018-07-02T18:08:43.651Z,28.60
2018-07-02T18:11:11.634Z,28.50
2018-07-02T18:13:39.496Z,28.50
2018-07-02T18:16:07.409Z,28.50
2018-07-02T18:18:35.321Z,28.40
2018-07-02T18:21:03.297Z,28.60
2018-07-02T18:23:31.376Z,28.70
2018-07-02T18:25:59.799Z,28.70
2018-07-02T18:28:27.740Z,28.80
2018-07-02T18:30:55.548Z,29.20
2018-07-02T18:33:23.485Z,28.70
2018-07-02T18:35:51.508Z,28.50
2018-07-02T18:38:19.443Z,28.60
2018-07-02T18:40:48.005Z,28.70
2018-07-02T18:43:15.941Z,28.40
2018-07-02T18:45:43.884Z,28.50
2018-07-02T18:48:12.218Z,28.90
2018-07-02T18:50:42.170Z,28.90
2018-07-02T18:53:14.993Z,28.80
2018-07-02T18:55:44.033Z,28.50
2018-07-02T18:58:11.988Z,29.20
2018-07-02T19:00:39.925Z,29.50
2018-07-02T19:03:07.832Z,29.00
2018-07-02T19:05:35.735Z,28.90
2018-07-02T19:08:03.740Z,29.30
2018-07-02T19:10:31.670Z,29.50
2018-07-02T19:12:59.510Z,29.50
2018-07-02T19:15:27.424Z,29.60
2018-07-02T19:17:55.289Z,29.80
2018-07-02T19:20:24.090Z,30.00
2018-07-02T19:22:52.012Z,29.80
2018-07-02T19:25:19.964Z,29.80
2018-07-02T19:27:47.844Z,29.80
2018-07-02T19:30:15.697Z,29.70
2018-07-02T19:32:43.664Z,30.00
2018-07-02T19:35:11.985Z,30.40
2018-07-02T19:37:40.109Z,30.80
2018-07-02T19:40:08.178Z,30.80
2018-07-02T19:42:36.059Z,30.80
2018-07-02T19:45:04.032Z,30.70
2018-07-02T19:47:31.995Z,30.50
2018-07-02T19:50:00.097Z,30.20
2018-07-02T19:52:28.003Z,30.90
2018-07-02T19:54:55.947Z,31.60
2018-07-02T19:57:23.876Z,30.80
2018-07-02T19:59:51.749Z,30.00
2018-07-02T20:02:19.860Z,30.10
2018-07-02T20:04:47.793Z,30.30
2018-07-02T20:07:15.703Z,30.10
2018-07-02T20:09:43.555Z,30.10
2018-07-02T20:12:11.884Z,30.10
2018-07-02T20:14:40.386Z,29.80
2018-07-02T20:17:08.517Z,29.90
2018-07-02T20:19:36.497Z,29.90
2018-07-02T20:22:04.569Z,30.00
2018-07-02T20:24:32.455Z,29.90
2018-07-02T20:27:00.340Z,29.90
2018-07-02T20:29:28.262Z,30.30
2018-07-02T20:31:56.132Z,30.60
2018-07-02T20:34:23.959Z,30.00
2018-07-02T20:36:51.808Z,30.60
2018-07-02T20:39:19.752Z,30.70
2018-07-02T20:41:47.679Z,30.40
2018-07-02T20:44:15.529Z,30.10
2018-07-02T20:46:43.387Z,30.00
2018-07-02T20:49:11.240Z,29.70
2018-07-02T20:51:39.125Z,29.60
2018-07-02T20:54:07.051Z,29.70
2018-07-02T20:56:34.906Z,29.90
2018-07-02T20:59:02.856Z,29.70
2018-07-02T21:01:30.820Z,29.40
2018-07-02T21:03:58.640Z,29.60
2018-07-02T21:06:26.464Z,29.50
2018-07-02T21:08:54.325Z,29.80
2018-07-02T21:11:22.395Z,29.90
2018-07-02T21:13:50.217Z,30.00
2018-07-02T21:16:18.084Z,29.90
2018-07-02T21:18:45.957Z,29.90
2018-07-02T21:21:13.826Z,30.00
2018-07-02T21:23:41.697Z,30.40
2018-07-02T21:26:09.644Z,31.40
2018-07-02T21:28:37.605Z,32.30
2018-07-02T21:31:05.432Z,31.70
2018-07-02T21:33:33.320Z,30.20
2018-07-02T21:36:01.304Z,31.60
2018-07-02T21:38:29.186Z,32.30
2018-07-02T21:40:57.113Z,31.70
2018-07-02T21:43:24.983Z,32.30
2018-07-02T21:45:53.708Z,32.00
2018-07-02T21:48:21.563Z,32.50
2018-07-02T21:50:49.378Z,32.70
2018-07-02T21:53:17.184Z,32.80
2018-07-02T21:55:45.095Z,32.80
2018-07-02T21:58:13.020Z,32.80
2018-07-02T22:00:44.284Z,33.10
2018-07-02T22:03:12.192Z,32.80
2018-07-02T22:05:40.115Z,32.80
2018-07-02T22:08:08.309Z,32.70
2018-07-02T22:10:36.253Z,32.90
2018-07-02T22:13:04.513Z,33.00
2018-07-02T22:15:32.360Z,33.20
2018-07-02T22:18:00.304Z,33.10
2018-07-02T22:42:06.679Z,33.20
2018-07-02T22:44:34.501Z,33.20
2018-07-02T22:47:02.401Z,33.00
2018-07-02T22:49:30.259Z,33.00
2018-07-02T22:51:58.084Z,33.00
2018-07-02T22:54:25.936Z,33.40
2018-07-02T22:56:53.800Z,33.70
2018-07-02T22:59:21.624Z,33.80
2018-07-02T23:01:49.471Z,34.00
2018-07-02T23:04:17.406Z,34.30
2018-07-02T23:06:45.204Z,34.30
2018-07-02T23:09:13.168Z,34.50
2018-07-02T23:11:41.062Z,34.60
2018-07-02T23:14:08.889Z,34.80
2018-07-02T23:16:36.689Z,35.10
2018-07-02T23:19:04.598Z,34.90
2018-07-02T23:21:32.472Z,34.80
2018-07-02T23:24:00.388Z,34.90
2018-07-02T23:26:28.280Z,35.40
2018-07-02T23:28:56.167Z,35.90
2018-07-02T23:31:24.030Z,36.40
2018-07-02T23:33:51.960Z,36.60
2018-07-02T23:36:19.755Z,36.80
2018-07-02T23:38:47.657Z,36.90
2018-07-02T23:41:15.496Z,37.40
2018-07-02T23:43:43.331Z,37.90
